sensor_id;sensor_type;location;lat;lon;timestamp;temperature;humidity
17607;DHT22;8922;52.240;20.980;2022-10-31T00:00:54;12.90;99.90
17607;DHT22;8922;52.240;20.980;2022-10-31T00:03:20;12.90;99.90
17607;DHT22;8922;52.240;20.980;2022-10-31T00:05:49;12.90;99.90
17607;DHT22;8922;52.240;20.980;2022-10-31T00:08:17;12.90;99.90
17607;DHT22;8922;52.240;20.980;2022-10-31T00:10:46;12.90;99.90
17607;DHT22;8922;52.240;20.980;2022-10-31T00:13:14;12.90;99.90
17607;DHT22;8922;52.240;20.980;2022-10-31T00:15:41;12.90;99.90
17607;DHT22;8922;52.240;20.980;2022-10-31T00:18:09;12.80;99.90
17607;DHT22;8922;52.240;20.980;2022-10-31T00:20:37;12.80;99.90
17607;DHT22;8922;52.240;20.980;2022-10-31T00:23:06;12.80;99.90
17607;DHT22;8922;52.240;20.980;2022-10-31T00:25:34;12.80;99.90
17607;DHT22;8922;52.240;20.980;2022-10-31T00:28:02;12.80;99.90
17607;DHT22;8922;52.240;20.980;2022-10-31T00:30:28;12.80;99.90
17607;DHT22;8922;52.240;20.980;2022-10-31T00:32:55;12.80;99.90
17607;DHT22;8922;52.240;20.980;2022-10-31T00:35:22;12.80;99.90
17607;DHT22;8922;52.240;20.980;2022-10-31T00:37:49;12.70;99.90
17607;DHT22;8922;52.240;20.980;2022-10-31T00:40:17;12.70;99.90
17607;DHT22;8922;52.240;20.980;2022-10-31T00:42:44;12.80;99.90
17607;DHT22;8922;52.240;20.980;2022-10-31T00:45:11;12.70;99.90
17607;DHT22;8922;52.240;20.980;2022-10-31T00:47:38;12.70;99.90
17607;DHT22;8922;52.240;20.980;2022-10-31T00:50:05;12.70;99.90
17607;DHT22;8922;52.240;20.980;2022-10-31T00:52:32;12.60;99.90
17607;DHT22;8922;52.240;20.980;2022-10-31T00:55:00;12.60;99.90
17607;DHT22;8922;52.240;20.980;2022-10-31T00:57:28;12.60;99.90
17607;DHT22;8922;52.240;20.980;2022-10-31T00:59:54;12.60;99.90
17607;DHT22;8922;52.240;20.980;2022-10-31T01:02:21;12.60;99.90
17607;DHT22;8922;52.240;20.980;2022-10-31T01:04:48;12.50;99.90
17607;DHT22;8922;52.240;20.980;2022-10-31T01:07:15;12.50;99.90
17607;DHT22;8922;52.240;20.980;2022-10-31T01:09:41;12.50;99.90
17607;DHT22;8922;52.240;20.980;2022-10-31T01:12:08;12.50;99.90
17607;DHT22;8922;52.240;20.980;2022-10-31T01:14:36;12.40;99.90
17607;DHT22;8922;52.240;20.980;2022-10-31T01:17:03;12.40;99.90
17607;DHT22;8922;52.240;20.980;2022-10-31T01:19:30;12.40;99.90
17607;DHT22;8922;52.240;20.980;2022-10-31T01:21:56;12.40;99.90
17607;DHT22;8922;52.240;20.980;2022-10-31T01:24:23;12.30;99.90
17607;DHT22;8922;52.240;20.980;2022-10-31T01:26:50;12.30;99.90
17607;DHT22;8922;52.240;20.980;2022-10-31T01:29:17;12.30;99.90
17607;DHT22;8922;52.240;20.980;2022-10-31T01:31:45;12.30;99.90
17607;DHT22;8922;52.240;20.980;2022-10-31T01:34:13;12.30;99.90
17607;DHT22;8922;52.240;20.980;2022-10-31T01:36:41;12.20;99.90
17607;DHT22;8922;52.240;20.980;2022-10-31T01:39:10;12.20;99.90
17607;DHT22;8922;52.240;20.980;2022-10-31T01:41:38;12.20;99.90
17607;DHT22;8922;52.240;20.980;2022-10-31T01:47:11;12.20;99.90
17607;DHT22;8922;52.240;20.980;2022-10-31T01:49:43;12.10;99.90
17607;DHT22;8922;52.240;20.980;2022-10-31T01:52:14;12.10;99.90
17607;DHT22;8922;52.240;20.980;2022-10-31T01:54:47;12.10;99.90
17607;DHT22;8922;52.240;20.980;2022-10-31T01:57:14;12.20;99.90
17607;DHT22;8922;52.240;20.980;2022-10-31T01:59:45;12.10;99.90
17607;DHT22;8922;52.240;20.980;2022-10-31T02:02:16;12.10;99.90
17607;DHT22;8922;52.240;20.980;2022-10-31T02:04:43;12.10;99.90
17607;DHT22;8922;52.240;20.980;2022-10-31T02:07:14;12.10;99.90
17607;DHT22;8922;52.240;20.980;2022-10-31T02:09:43;12.00;99.90
17607;DHT22;8922;52.240;20.980;2022-10-31T02:12:12;12.00;99.90
17607;DHT22;8922;52.240;20.980;2022-10-31T02:14:40;12.00;99.90
17607;DHT22;8922;52.240;20.980;2022-10-31T02:17:07;12.00;99.90
17607;DHT22;8922;52.240;20.980;2022-10-31T02:19:40;12.00;99.90
17607;DHT22;8922;52.240;20.980;2022-10-31T02:22:12;12.00;99.90
17607;DHT22;8922;52.240;20.980;2022-10-31T02:24:50;11.90;99.90
17607;DHT22;8922;52.240;20.980;2022-10-31T02:27:52;12.00;99.90
17607;DHT22;8922;52.240;20.980;2022-10-31T02:30:22;12.00;99.90
17607;DHT22;8922;52.240;20.980;2022-10-31T02:33:04;12.00;99.90
17607;DHT22;8922;52.240;20.980;2022-10-31T02:35:40;12.00;99.90
17607;DHT22;8922;52.240;20.980;2022-10-31T02:38:18;12.00;99.90
17607;DHT22;8922;52.240;20.980;2022-10-31T02:40:52;12.00;99.90
17607;DHT22;8922;52.240;20.980;2022-10-31T02:43:21;12.00;99.90
17607;DHT22;8922;52.240;20.980;2022-10-31T02:45:57;12.00;99.90
17607;DHT22;8922;52.240;20.980;2022-10-31T02:48:29;12.00;99.90
17607;DHT22;8922;52.240;20.980;2022-10-31T02:50:59;11.90;99.90
17607;DHT22;8922;52.240;20.980;2022-10-31T02:53:26;11.90;99.90
17607;DHT22;8922;52.240;20.980;2022-10-31T02:56:00;11.90;99.90
17607;DHT22;8922;52.240;20.980;2022-10-31T02:58:31;11.90;99.90
17607;DHT22;8922;52.240;20.980;2022-10-31T03:01:10;11.90;99.90
17607;DHT22;8922;52.240;20.980;2022-10-31T03:03:48;11.90;99.90
17607;DHT22;8922;52.240;20.980;2022-10-31T03:06:23;11.90;99.90
17607;DHT22;8922;52.240;20.980;2022-10-31T03:08:58;11.90;99.90
17607;DHT22;8922;52.240;20.980;2022-10-31T03:11:32;11.90;99.90
17607;DHT22;8922;52.240;20.980;2022-10-31T03:14:05;11.90;99.90
17607;DHT22;8922;52.240;20.980;2022-10-31T03:16:39;11.90;99.90
17607;DHT22;8922;52.240;20.980;2022-10-31T03:19:12;11.90;99.90
17607;DHT22;8922;52.240;20.980;2022-10-31T03:21:43;11.90;99.90
17607;DHT22;8922;52.240;20.980;2022-10-31T03:24:12;11.90;99.90
17607;DHT22;8922;52.240;20.980;2022-10-31T03:26:42;11.90;99.90
17607;DHT22;8922;52.240;20.980;2022-10-31T03:29:15;11.80;99.90
17607;DHT22;8922;52.240;20.980;2022-10-31T03:31:45;11.90;99.90
17607;DHT22;8922;52.240;20.980;2022-10-31T03:34:16;11.90;99.90
17607;DHT22;8922;52.240;20.980;2022-10-31T03:36:45;11.90;99.90
17607;DHT22;8922;52.240;20.980;2022-10-31T03:39:14;11.90;99.90
17607;DHT22;8922;52.240;20.980;2022-10-31T03:41:46;11.90;99.90
17607;DHT22;8922;52.240;20.980;2022-10-31T03:44:17;12.00;99.90
17607;DHT22;8922;52.240;20.980;2022-10-31T03:46:45;11.90;99.90
17607;DHT22;8922;52.240;20.980;2022-10-31T03:49:14;11.90;99.90
17607;DHT22;8922;52.240;20.980;2022-10-31T03:51:45;11.90;99.90
17607;DHT22;8922;52.240;20.980;2022-10-31T03:54:20;11.90;99.90
17607;DHT22;8922;52.240;20.980;2022-10-31T03:56:51;11.90;99.90
17607;DHT22;8922;52.240;20.980;2022-10-31T03:59:23;11.90;99.90
17607;DHT22;8922;52.240;20.980;2022-10-31T04:01:53;11.90;99.90
17607;DHT22;8922;52.240;20.980;2022-10-31T04:04:24;11.90;99.90
17607;DHT22;8922;52.240;20.980;2022-10-31T04:06:52;11.80;99.90
17607;DHT22;8922;52.240;20.980;2022-10-31T04:09:20;11.80;99.90
17607;DHT22;8922;52.240;20.980;2022-10-31T04:11:51;11.80;99.90
17607;DHT22;8922;52.240;20.980;2022-10-31T04:14:20;11.70;99.90
17607;DHT22;8922;52.240;20.980;2022-10-31T04:16:47;11.80;99.90
17607;DHT22;8922;52.240;20.980;2022-10-31T04:19:14;11.70;99.90
17607;DHT22;8922;52.240;20.980;2022-10-31T04:21:42;11.70;99.90
17607;DHT22;8922;52.240;20.980;2022-10-31T04:24:09;11.80;99.90
17607;DHT22;8922;52.240;20.980;2022-10-31T04:26:37;11.70;99.90
17607;DHT22;8922;52.240;20.980;2022-10-31T04:29:03;11.70;99.90
17607;DHT22;8922;52.240;20.980;2022-10-31T04:31:30;11.70;99.90
17607;DHT22;8922;52.240;20.980;2022-10-31T04:33:57;11.60;99.90
17607;DHT22;8922;52.240;20.980;2022-10-31T04:36:24;11.60;99.90
17607;DHT22;8922;52.240;20.980;2022-10-31T04:38:52;11.60;99.90
17607;DHT22;8922;52.240;20.980;2022-10-31T04:41:19;11.60;99.90
17607;DHT22;8922;52.240;20.980;2022-10-31T04:43:45;11.60;99.90
17607;DHT22;8922;52.240;20.980;2022-10-31T04:46:12;11.50;99.90
17607;DHT22;8922;52.240;20.980;2022-10-31T04:48:39;11.60;99.90
17607;DHT22;8922;52.240;20.980;2022-10-31T04:51:06;11.60;99.90
17607;DHT22;8922;52.240;20.980;2022-10-31T04:53:32;11.60;99.90
17607;DHT22;8922;52.240;20.980;2022-10-31T04:56:00;11.60;99.90
17607;DHT22;8922;52.240;20.980;2022-10-31T04:58:28;11.60;99.90
17607;DHT22;8922;52.240;20.980;2022-10-31T05:00:55;11.50;99.90
17607;DHT22;8922;52.240;20.980;2022-10-31T05:03:22;11.50;99.90
17607;DHT22;8922;52.240;20.980;2022-10-31T05:05:49;11.50;99.90
17607;DHT22;8922;52.240;20.980;2022-10-31T05:08:16;11.50;99.90
17607;DHT22;8922;52.240;20.980;2022-10-31T05:10:43;11.50;99.90
17607;DHT22;8922;52.240;20.980;2022-10-31T05:13:11;11.50;99.90
17607;DHT22;8922;52.240;20.980;2022-10-31T05:15:38;11.50;99.90
17607;DHT22;8922;52.240;20.980;2022-10-31T05:18:04;11.60;99.90
17607;DHT22;8922;52.240;20.980;2022-10-31T05:20:32;11.60;99.90
17607;DHT22;8922;52.240;20.980;2022-10-31T05:22:59;11.60;99.90
17607;DHT22;8922;52.240;20.980;2022-10-31T05:25:27;11.60;99.90
17607;DHT22;8922;52.240;20.980;2022-10-31T05:27:55;11.60;99.90
17607;DHT22;8922;52.240;20.980;2022-10-31T05:30:25;11.60;99.90
17607;DHT22;8922;52.240;20.980;2022-10-31T05:32:52;11.60;99.90
17607;DHT22;8922;52.240;20.980;2022-10-31T05:35:21;11.60;99.90
17607;DHT22;8922;52.240;20.980;2022-10-31T05:37:48;11.60;99.90
17607;DHT22;8922;52.240;20.980;2022-10-31T05:40:17;11.60;99.90
17607;DHT22;8922;52.240;20.980;2022-10-31T05:42:44;11.60;99.90
17607;DHT22;8922;52.240;20.980;2022-10-31T05:45:13;11.60;99.90
17607;DHT22;8922;52.240;20.980;2022-10-31T05:47:41;11.70;99.90
17607;DHT22;8922;52.240;20.980;2022-10-31T05:50:09;11.60;99.90
17607;DHT22;8922;52.240;20.980;2022-10-31T05:52:36;11.70;99.90
17607;DHT22;8922;52.240;20.980;2022-10-31T05:55:03;11.70;99.90
17607;DHT22;8922;52.240;20.980;2022-10-31T05:57:32;11.70;99.90
17607;DHT22;8922;52.240;20.980;2022-10-31T05:59:59;11.80;99.90
17607;DHT22;8922;52.240;20.980;2022-10-31T06:02:25;11.80;99.90
17607;DHT22;8922;52.240;20.980;2022-10-31T06:04:58;11.80;99.90
17607;DHT22;8922;52.240;20.980;2022-10-31T06:07:25;11.80;99.90
17607;DHT22;8922;52.240;20.980;2022-10-31T06:09:51;11.80;99.90
17607;DHT22;8922;52.240;20.980;2022-10-31T06:12:18;11.80;99.90
17607;DHT22;8922;52.240;20.980;2022-10-31T06:14:45;11.90;99.90
17607;DHT22;8922;52.240;20.980;2022-10-31T06:17:11;11.90;99.90
17607;DHT22;8922;52.240;20.980;2022-10-31T06:19:38;11.90;99.90
17607;DHT22;8922;52.240;20.980;2022-10-31T06:22:06;12.00;99.90
17607;DHT22;8922;52.240;20.980;2022-10-31T06:24:33;12.10;99.90
17607;DHT22;8922;52.240;20.980;2022-10-31T06:27:00;12.10;99.90
17607;DHT22;8922;52.240;20.980;2022-10-31T06:29:27;12.10;99.90
17607;DHT22;8922;52.240;20.980;2022-10-31T06:31:53;12.20;99.90
17607;DHT22;8922;52.240;20.980;2022-10-31T06:34:20;12.20;99.90
17607;DHT22;8922;52.240;20.980;2022-10-31T06:36:47;12.30;99.90
17607;DHT22;8922;52.240;20.980;2022-10-31T06:39:15;12.40;99.90
17607;DHT22;8922;52.240;20.980;2022-10-31T06:41:42;12.30;99.90
17607;DHT22;8922;52.240;20.980;2022-10-31T06:44:09;12.40;99.90
17607;DHT22;8922;52.240;20.980;2022-10-31T06:46:35;12.40;99.90
17607;DHT22;8922;52.240;20.980;2022-10-31T06:49:02;12.50;99.90
17607;DHT22;8922;52.240;20.980;2022-10-31T06:51:29;12.60;99.90
17607;DHT22;8922;52.240;20.980;2022-10-31T06:53:55;12.70;99.90
17607;DHT22;8922;52.240;20.980;2022-10-31T06:56:23;12.80;99.90
17607;DHT22;8922;52.240;20.980;2022-10-31T06:58:50;12.90;99.90
17607;DHT22;8922;52.240;20.980;2022-10-31T07:01:17;13.10;99.90
17607;DHT22;8922;52.240;20.980;2022-10-31T07:03:44;13.20;99.90
17607;DHT22;8922;52.240;20.980;2022-10-31T07:06:10;13.30;99.90
17607;DHT22;8922;52.240;20.980;2022-10-31T07:08:37;13.40;99.90
17607;DHT22;8922;52.240;20.980;2022-10-31T07:11:04;13.70;99.90
17607;DHT22;8922;52.240;20.980;2022-10-31T07:13:32;13.90;99.90
17607;DHT22;8922;52.240;20.980;2022-10-31T07:16:01;14.00;99.90
17607;DHT22;8922;52.240;20.980;2022-10-31T07:18:28;14.10;99.90
17607;DHT22;8922;52.240;20.980;2022-10-31T07:20:55;14.20;99.90
17607;DHT22;8922;52.240;20.980;2022-10-31T07:23:22;14.40;99.90
17607;DHT22;8922;52.240;20.980;2022-10-31T07:25:54;14.40;99.90
17607;DHT22;8922;52.240;20.980;2022-10-31T07:28:21;14.60;99.90
17607;DHT22;8922;52.240;20.980;2022-10-31T07:30:51;14.70;99.90
17607;DHT22;8922;52.240;20.980;2022-10-31T07:33:18;14.80;99.90
17607;DHT22;8922;52.240;20.980;2022-10-31T07:35:45;14.90;99.90
17607;DHT22;8922;52.240;20.980;2022-10-31T07:38:13;15.00;99.90
17607;DHT22;8922;52.240;20.980;2022-10-31T07:40:41;15.10;99.90
17607;DHT22;8922;52.240;20.980;2022-10-31T07:43:08;15.30;99.90
17607;DHT22;8922;52.240;20.980;2022-10-31T07:45:37;15.30;99.90
17607;DHT22;8922;52.240;20.980;2022-10-31T07:48:05;15.30;99.90
17607;DHT22;8922;52.240;20.980;2022-10-31T07:50:32;15.40;99.90
17607;DHT22;8922;52.240;20.980;2022-10-31T07:53:00;15.50;99.90
17607;DHT22;8922;52.240;20.980;2022-10-31T07:55:27;15.70;99.90
17607;DHT22;8922;52.240;20.980;2022-10-31T07:57:58;15.80;99.90
17607;DHT22;8922;52.240;20.980;2022-10-31T08:00:25;15.90;99.90
17607;DHT22;8922;52.240;20.980;2022-10-31T08:02:59;16.00;99.90
17607;DHT22;8922;52.240;20.980;2022-10-31T08:05:28;16.00;99.90
17607;DHT22;8922;52.240;20.980;2022-10-31T08:07:55;16.10;99.90
17607;DHT22;8922;52.240;20.980;2022-10-31T08:10:23;16.10;99.90
17607;DHT22;8922;52.240;20.980;2022-10-31T08:12:55;16.10;99.90
17607;DHT22;8922;52.240;20.980;2022-10-31T08:15:23;16.10;99.90
17607;DHT22;8922;52.240;20.980;2022-10-31T08:17:50;16.20;99.90
17607;DHT22;8922;52.240;20.980;2022-10-31T08:20:16;16.10;99.90
17607;DHT22;8922;52.240;20.980;2022-10-31T08:22:52;16.20;99.90
17607;DHT22;8922;52.240;20.980;2022-10-31T08:25:19;16.20;99.90
17607;DHT22;8922;52.240;20.980;2022-10-31T08:27:49;16.40;99.90
17607;DHT22;8922;52.240;20.980;2022-10-31T08:30:16;16.60;99.90
17607;DHT22;8922;52.240;20.980;2022-10-31T08:32:43;16.70;99.90
17607;DHT22;8922;52.240;20.980;2022-10-31T08:35:09;16.90;99.90
17607;DHT22;8922;52.240;20.980;2022-10-31T08:37:36;17.10;99.90
17607;DHT22;8922;52.240;20.980;2022-10-31T08:40:06;17.30;99.90
17607;DHT22;8922;52.240;20.980;2022-10-31T08:42:33;17.80;99.90
17607;DHT22;8922;52.240;20.980;2022-10-31T08:44:59;19.00;99.90
17607;DHT22;8922;52.240;20.980;2022-10-31T08:47:26;21.00;99.90
17607;DHT22;8922;52.240;20.980;2022-10-31T08:49:53;23.20;99.90
17607;DHT22;8922;52.240;20.980;2022-10-31T08:52:22;25.10;93.90
17607;DHT22;8922;52.240;20.980;2022-10-31T08:54:49;26.60;83.60
17607;DHT22;8922;52.240;20.980;2022-10-31T08:57:17;27.90;74.50
17607;DHT22;8922;52.240;20.980;2022-10-31T08:59:44;29.00;67.80
17607;DHT22;8922;52.240;20.980;2022-10-31T09:02:11;29.80;62.10
17607;DHT22;8922;52.240;20.980;2022-10-31T09:04:38;30.60;57.90
17607;DHT22;8922;52.240;20.980;2022-10-31T09:07:04;31.30;55.90
17607;DHT22;8922;52.240;20.980;2022-10-31T09:09:31;31.90;53.60
17607;DHT22;8922;52.240;20.980;2022-10-31T09:11:58;32.50;51.70
17607;DHT22;8922;52.240;20.980;2022-10-31T09:14:26;32.80;49.80
17607;DHT22;8922;52.240;20.980;2022-10-31T09:16:53;33.40;48.40
17607;DHT22;8922;52.240;20.980;2022-10-31T09:19:20;33.70;47.30
17607;DHT22;8922;52.240;20.980;2022-10-31T09:21:46;34.00;46.50
17607;DHT22;8922;52.240;20.980;2022-10-31T09:24:13;34.60;45.40
17607;DHT22;8922;52.240;20.980;2022-10-31T09:26:40;34.90;44.50
17607;DHT22;8922;52.240;20.980;2022-10-31T09:29:07;35.30;43.90
17607;DHT22;8922;52.240;20.980;2022-10-31T09:31:36;35.40;43.00
17607;DHT22;8922;52.240;20.980;2022-10-31T09:34:03;35.60;42.80
17607;DHT22;8922;52.240;20.980;2022-10-31T09:36:30;36.00;42.30
17607;DHT22;8922;52.240;20.980;2022-10-31T09:38:57;36.80;40.90
17607;DHT22;8922;52.240;20.980;2022-10-31T09:41:29;37.20;40.10
17607;DHT22;8922;52.240;20.980;2022-10-31T09:44:04;36.80;40.00
17607;DHT22;8922;52.240;20.980;2022-10-31T09:46:42;36.70;40.10
17607;DHT22;8922;52.240;20.980;2022-10-31T09:49:30;37.00;40.10
17607;DHT22;8922;52.240;20.980;2022-10-31T09:52:04;37.30;39.20
17607;DHT22;8922;52.240;20.980;2022-10-31T09:54:40;37.20;39.20
17607;DHT22;8922;52.240;20.980;2022-10-31T09:57:12;37.10;39.10
17607;DHT22;8922;52.240;20.980;2022-10-31T09:59:42;37.20;39.20
17607;DHT22;8922;52.240;20.980;2022-10-31T10:02:16;37.50;38.80
17607;DHT22;8922;52.240;20.980;2022-10-31T10:04:48;38.50;37.70
17607;DHT22;8922;52.240;20.980;2022-10-31T10:07:22;39.00;36.90
17607;DHT22;8922;52.240;20.980;2022-10-31T10:09:52;39.40;36.00
17607;DHT22;8922;52.240;20.980;2022-10-31T10:12:28;39.60;35.60
17607;DHT22;8922;52.240;20.980;2022-10-31T10:15:19;40.20;35.10
17607;DHT22;8922;52.240;20.980;2022-10-31T10:18:00;40.90;34.10
17607;DHT22;8922;52.240;20.980;2022-10-31T10:20:32;40.60;34.30
17607;DHT22;8922;52.240;20.980;2022-10-31T10:23:17;40.40;34.20
17607;DHT22;8922;52.240;20.980;2022-10-31T10:25:53;41.00;33.70
17607;DHT22;8922;52.240;20.980;2022-10-31T10:28:28;41.70;33.00
17607;DHT22;8922;52.240;20.980;2022-10-31T10:31:01;42.10;32.50
17607;DHT22;8922;52.240;20.980;2022-10-31T10:33:33;42.30;32.60
17607;DHT22;8922;52.240;20.980;2022-10-31T10:36:05;42.30;32.10
17607;DHT22;8922;52.240;20.980;2022-10-31T10:38:36;42.70;31.70
17607;DHT22;8922;52.240;20.980;2022-10-31T10:41:10;43.00;31.80
17607;DHT22;8922;52.240;20.980;2022-10-31T10:43:38;43.20;30.90
17607;DHT22;8922;52.240;20.980;2022-10-31T10:46:29;43.20;30.50
17607;DHT22;8922;52.240;20.980;2022-10-31T10:49:18;42.60;30.90
17607;DHT22;8922;52.240;20.980;2022-10-31T10:51:49;42.30;31.40
17607;DHT22;8922;52.240;20.980;2022-10-31T10:54:53;42.50;31.50
17607;DHT22;8922;52.240;20.980;2022-10-31T11:00:18;43.40;30.50
17607;DHT22;8922;52.240;20.980;2022-10-31T11:02:45;43.40;30.50
17607;DHT22;8922;52.240;20.980;2022-10-31T11:05:22;43.20;30.40
17607;DHT22;8922;52.240;20.980;2022-10-31T11:07:49;43.20;30.30
17607;DHT22;8922;52.240;20.980;2022-10-31T11:10:17;43.10;30.80
17607;DHT22;8922;52.240;20.980;2022-10-31T11:12:46;42.90;30.60
17607;DHT22;8922;52.240;20.980;2022-10-31T11:15:24;42.90;30.80
17607;DHT22;8922;52.240;20.980;2022-10-31T11:17:54;42.80;30.70
17607;DHT22;8922;52.240;20.980;2022-10-31T11:20:30;42.70;31.60
17607;DHT22;8922;52.240;20.980;2022-10-31T11:23:03;42.60;31.10
17607;DHT22;8922;52.240;20.980;2022-10-31T11:25:31;42.70;31.10
17607;DHT22;8922;52.240;20.980;2022-10-31T11:28:01;43.00;30.80
17607;DHT22;8922;52.240;20.980;2022-10-31T11:30:30;43.00;30.80
17607;DHT22;8922;52.240;20.980;2022-10-31T11:32:58;43.00;30.90
17607;DHT22;8922;52.240;20.980;2022-10-31T11:35:26;42.80;31.00
17607;DHT22;8922;52.240;20.980;2022-10-31T11:37:56;43.00;31.00
17607;DHT22;8922;52.240;20.980;2022-10-31T11:40:26;42.80;30.90
17607;DHT22;8922;52.240;20.980;2022-10-31T11:42:55;41.30;30.90
17607;DHT22;8922;52.240;20.980;2022-10-31T11:45:29;39.10;32.90
17607;DHT22;8922;52.240;20.980;2022-10-31T11:47:58;36.60;35.30
17607;DHT22;8922;52.240;20.980;2022-10-31T11:50:35;34.40;38.10
17607;DHT22;8922;52.240;20.980;2022-10-31T11:53:09;32.50;40.90
17607;DHT22;8922;52.240;20.980;2022-10-31T11:55:39;31.10;42.90
17607;DHT22;8922;52.240;20.980;2022-10-31T11:58:20;29.70;45.10
17607;DHT22;8922;52.240;20.980;2022-10-31T12:00:50;28.40;47.60
17607;DHT22;8922;52.240;20.980;2022-10-31T12:03:27;27.40;49.20
17607;DHT22;8922;52.240;20.980;2022-10-31T12:05:58;26.50;51.30
17607;DHT22;8922;52.240;20.980;2022-10-31T12:08:29;25.60;53.30
17607;DHT22;8922;52.240;20.980;2022-10-31T12:11:00;24.80;55.00
17607;DHT22;8922;52.240;20.980;2022-10-31T12:13:33;24.20;56.50
17607;DHT22;8922;52.240;20.980;2022-10-31T12:16:05;23.60;57.70
17607;DHT22;8922;52.240;20.980;2022-10-31T12:18:50;23.00;59.30
17607;DHT22;8922;52.240;20.980;2022-10-31T12:21:31;22.40;60.90
17607;DHT22;8922;52.240;20.980;2022-10-31T12:24:09;22.00;62.90
17607;DHT22;8922;52.240;20.980;2022-10-31T12:26:42;21.50;64.70
17607;DHT22;8922;52.240;20.980;2022-10-31T12:29:28;21.20;65.70
17607;DHT22;8922;52.240;20.980;2022-10-31T12:32:05;21.00;67.30
17607;DHT22;8922;52.240;20.980;2022-10-31T12:34:50;20.80;68.60
17607;DHT22;8922;52.240;20.980;2022-10-31T12:37:30;20.60;69.80
17607;DHT22;8922;52.240;20.980;2022-10-31T12:43:03;20.30;72.10
17607;DHT22;8922;52.240;20.980;2022-10-31T12:45:51;20.20;73.00
17607;DHT22;8922;52.240;20.980;2022-10-31T12:48:40;20.00;74.40
17607;DHT22;8922;52.240;20.980;2022-10-31T12:51:17;19.90;75.80
17607;DHT22;8922;52.240;20.980;2022-10-31T12:54:03;19.70;77.10
17607;DHT22;8922;52.240;20.980;2022-10-31T12:56:41;19.50;78.60
17607;DHT22;8922;52.240;20.980;2022-10-31T12:59:13;19.30;80.30
17607;DHT22;8922;52.240;20.980;2022-10-31T13:01:47;19.20;82.10
17607;DHT22;8922;52.240;20.980;2022-10-31T13:04:17;19.20;84.30
17607;DHT22;8922;52.240;20.980;2022-10-31T13:06:50;19.20;86.60
17607;DHT22;8922;52.240;20.980;2022-10-31T13:09:22;19.20;89.10
17607;DHT22;8922;52.240;20.980;2022-10-31T13:11:55;19.10;90.70
17607;DHT22;8922;52.240;20.980;2022-10-31T13:14:26;18.90;92.10
17607;DHT22;8922;52.240;20.980;2022-10-31T13:16:55;18.90;93.60
17607;DHT22;8922;52.240;20.980;2022-10-31T13:19:25;18.80;95.10
17607;DHT22;8922;52.240;20.980;2022-10-31T13:21:57;18.80;96.30
17607;DHT22;8922;52.240;20.980;2022-10-31T13:24:31;18.70;97.70
17607;DHT22;8922;52.240;20.980;2022-10-31T13:27:02;18.60;99.10
17607;DHT22;8922;52.240;20.980;2022-10-31T13:29:32;18.60;99.90
17607;DHT22;8922;52.240;20.980;2022-10-31T13:32:03;18.50;99.90
17607;DHT22;8922;52.240;20.980;2022-10-31T13:34:33;18.30;99.90
17607;DHT22;8922;52.240;20.980;2022-10-31T13:37:05;18.30;99.90
17607;DHT22;8922;52.240;20.980;2022-10-31T13:39:44;18.10;99.90
17607;DHT22;8922;52.240;20.980;2022-10-31T13:42:19;18.00;99.90
17607;DHT22;8922;52.240;20.980;2022-10-31T13:44:48;17.90;99.90
17607;DHT22;8922;52.240;20.980;2022-10-31T13:47:22;17.80;99.90
17607;DHT22;8922;52.240;20.980;2022-10-31T13:49:50;17.70;99.90
17607;DHT22;8922;52.240;20.980;2022-10-31T13:52:22;17.60;99.90
17607;DHT22;8922;52.240;20.980;2022-10-31T13:54:53;17.60;99.90
17607;DHT22;8922;52.240;20.980;2022-10-31T13:57:31;17.50;99.90
17607;DHT22;8922;52.240;20.980;2022-10-31T14:00:00;17.50;99.90
17607;DHT22;8922;52.240;20.980;2022-10-31T14:02:30;17.40;99.90
17607;DHT22;8922;52.240;20.980;2022-10-31T14:04:59;17.30;99.90
17607;DHT22;8922;52.240;20.980;2022-10-31T14:07:27;17.30;99.90
17607;DHT22;8922;52.240;20.980;2022-10-31T14:09:59;17.20;99.90
17607;DHT22;8922;52.240;20.980;2022-10-31T14:12:31;17.10;99.90
17607;DHT22;8922;52.240;20.980;2022-10-31T14:15:04;17.00;99.90
17607;DHT22;8922;52.240;20.980;2022-10-31T14:17:38;16.90;99.90
17607;DHT22;8922;52.240;20.980;2022-10-31T14:20:38;16.80;99.90
17607;DHT22;8922;52.240;20.980;2022-10-31T14:23:31;16.70;99.90
17607;DHT22;8922;52.240;20.980;2022-10-31T14:26:20;16.60;99.90
17607;DHT22;8922;52.240;20.980;2022-10-31T14:28:49;16.50;99.90
17607;DHT22;8922;52.240;20.980;2022-10-31T14:31:29;16.40;99.90
17607;DHT22;8922;52.240;20.980;2022-10-31T14:33:59;16.20;99.90
17607;DHT22;8922;52.240;20.980;2022-10-31T14:36:33;16.10;99.90
17607;DHT22;8922;52.240;20.980;2022-10-31T14:39:08;16.00;99.90
17607;DHT22;8922;52.240;20.980;2022-10-31T14:42:11;15.80;99.90
17607;DHT22;8922;52.240;20.980;2022-10-31T14:47:58;15.50;99.90
17607;DHT22;8922;52.240;20.980;2022-10-31T14:50:44;15.40;99.90
17607;DHT22;8922;52.240;20.980;2022-10-31T14:53:17;15.30;99.90
17607;DHT22;8922;52.240;20.980;2022-10-31T14:55:47;15.20;99.90
17607;DHT22;8922;52.240;20.980;2022-10-31T14:58:19;15.10;99.90
17607;DHT22;8922;52.240;20.980;2022-10-31T15:00:47;15.00;99.90
17607;DHT22;8922;52.240;20.980;2022-10-31T15:03:16;14.90;99.90
17607;DHT22;8922;52.240;20.980;2022-10-31T15:05:48;14.80;99.90
17607;DHT22;8922;52.240;20.980;2022-10-31T15:08:32;14.70;99.90
17607;DHT22;8922;52.240;20.980;2022-10-31T15:11:03;14.60;99.90
17607;DHT22;8922;52.240;20.980;2022-10-31T15:13:41;14.50;99.90
17607;DHT22;8922;52.240;20.980;2022-10-31T15:16:12;14.40;99.90
17607;DHT22;8922;52.240;20.980;2022-10-31T15:18:55;14.40;99.90
17607;DHT22;8922;52.240;20.980;2022-10-31T15:21:24;14.30;99.90
17607;DHT22;8922;52.240;20.980;2022-10-31T15:23:54;14.30;99.90
17607;DHT22;8922;52.240;20.980;2022-10-31T15:26:24;14.20;99.90
17607;DHT22;8922;52.240;20.980;2022-10-31T15:29:02;14.10;99.90
17607;DHT22;8922;52.240;20.980;2022-10-31T15:31:30;14.00;99.90
17607;DHT22;8922;52.240;20.980;2022-10-31T15:34:01;14.00;99.90
17607;DHT22;8922;52.240;20.980;2022-10-31T15:36:29;13.90;99.90
17607;DHT22;8922;52.240;20.980;2022-10-31T15:38:56;13.90;99.90
17607;DHT22;8922;52.240;20.980;2022-10-31T15:41:32;13.90;99.90
17607;DHT22;8922;52.240;20.980;2022-10-31T15:44:10;13.80;99.90
17607;DHT22;8922;52.240;20.980;2022-10-31T15:46:38;13.80;99.90
17607;DHT22;8922;52.240;20.980;2022-10-31T15:49:18;13.80;99.90
17607;DHT22;8922;52.240;20.980;2022-10-31T15:51:51;13.70;99.90
17607;DHT22;8922;52.240;20.980;2022-10-31T15:54:18;13.80;99.90
17607;DHT22;8922;52.240;20.980;2022-10-31T15:56:45;13.70;99.90
17607;DHT22;8922;52.240;20.980;2022-10-31T15:59:18;13.70;99.90
17607;DHT22;8922;52.240;20.980;2022-10-31T16:01:58;13.70;99.90
17607;DHT22;8922;52.240;20.980;2022-10-31T16:04:25;13.70;99.90